createdAt,value
2019-04-03T00:00:04.731Z,6.67
2019-04-03T00:02:34.800Z,6.25
2019-04-03T00:05:05.139Z,6.58
2019-04-03T00:07:35.915Z,7.12
2019-04-03T00:10:07.222Z,5.70
2019-04-03T00:12:36.581Z,6.25
2019-04-03T00:15:07.372Z,6.83
2019-04-03T00:17:36.521Z,6.42
2019-04-03T00:20:06.690Z,6.83
2019-04-03T00:22:36.042Z,6.37
2019-04-03T00:25:05.680Z,6.42
2019-04-03T00:27:34.712Z,6.50
2019-04-03T00:30:04.764Z,5.70
2019-04-03T00:32:33.796Z,5.28
2019-04-03T00:35:02.876Z,5.67
2019-04-03T00:37:31.996Z,5.47
2019-04-03T00:40:01.103Z,6.47
2019-04-03T00:42:30.190Z,6.12
2019-04-03T00:44:59.123Z,6.78
2019-04-03T00:47:28.111Z,6.37
2019-04-03T00:49:57.201Z,6.75
2019-04-03T00:52:27.583Z,6.12
2019-04-03T00:54:57.256Z,5.85
2019-04-03T00:57:26.878Z,6.80
2019-04-03T00:59:56.510Z,6.92
2019-04-03T01:02:27.936Z,6.95
2019-04-03T01:04:58.403Z,6.47
2019-04-03T01:07:29.300Z,6.97
2019-04-03T01:09:59.572Z,6.30
2019-04-03T01:12:30.875Z,6.35
2019-04-03T01:15:01.640Z,6.70
2019-04-03T01:17:30.538Z,6.95
2019-04-03T01:19:59.547Z,6.78
2019-04-03T01:22:28.663Z,6.33
2019-04-03T01:24:57.795Z,7.12
2019-04-03T01:27:26.784Z,6.95
2019-04-03T01:29:55.947Z,7.53
2019-04-03T01:32:25.072Z,7.35
2019-04-03T01:34:54.152Z,7.37
2019-04-03T01:37:23.216Z,7.58
2019-04-03T01:39:52.277Z,7.72
2019-04-03T01:42:22.399Z,7.75
2019-04-03T01:44:51.681Z,7.85
2019-04-03T01:47:20.728Z,7.67
2019-04-03T01:49:49.848Z,7.90
2019-04-03T01:52:18.990Z,7.55
2019-04-03T01:54:48.100Z,7.17
2019-04-03T01:57:17.229Z,8.45
2019-04-03T01:59:46.428Z,7.33
2019-04-03T02:02:15.600Z,7.15
2019-04-03T02:04:44.755Z,7.30
2019-04-03T02:07:14.903Z,8.45
2019-04-03T02:09:46.254Z,7.42
2019-04-03T02:12:15.113Z,7.65
2019-04-03T02:14:44.284Z,7.58
2019-04-03T02:17:13.462Z,8.08
2019-04-03T02:19:42.579Z,10.58
2019-04-03T02:22:11.628Z,11.45
2019-04-03T02:24:41.046Z,10.25
2019-04-03T02:27:10.202Z,10.18
2019-04-03T02:29:39.847Z,9.33
2019-04-03T02:32:09.729Z,9.28
2019-04-03T02:34:39.030Z,9.88
2019-04-03T02:37:08.108Z,8.50
2019-04-03T02:39:37.298Z,9.55
2019-04-03T02:42:08.515Z,9.83
2019-04-03T02:44:37.486Z,9.15
2019-04-03T02:47:06.436Z,9.05
2019-04-03T02:49:35.529Z,9.18
2019-04-03T02:52:04.833Z,8.83
2019-04-03T02:54:37.031Z,9.08
2019-04-03T02:57:06.123Z,8.80
2019-04-03T02:59:35.278Z,8.73
2019-04-03T03:02:04.426Z,8.60
2019-04-03T03:04:33.907Z,9.35
2019-04-03T03:07:04.472Z,9.13
2019-04-03T03:09:34.179Z,9.28
2019-04-03T03:12:03.747Z,8.63
2019-04-03T03:14:33.110Z,8.05
2019-04-03T03:17:02.290Z,8.90
2019-04-03T03:19:33.018Z,9.15
2019-04-03T03:22:03.041Z,9.53
2019-04-03T03:24:34.813Z,9.28
2019-04-03T03:27:08.068Z,9.63
2019-04-03T03:29:35.704Z,9.43
2019-04-03T03:32:15.715Z,9.08
2019-04-03T03:34:50.440Z,9.58
2019-04-03T03:37:07.253Z,8.23
2019-04-03T03:39:36.803Z,8.85
2019-04-03T03:42:06.301Z,8.53
2019-04-03T03:44:37.010Z,8.05
2019-04-03T03:47:06.402Z,8.63
2019-04-03T03:49:36.295Z,9.50
2019-04-03T03:52:06.283Z,8.70
2019-04-03T03:54:35.910Z,9.33
2019-04-03T03:57:07.200Z,9.23
2019-04-03T03:59:37.022Z,9.63
2019-04-03T04:02:06.600Z,9.13
2019-04-03T04:04:36.396Z,9.93
2019-04-03T04:07:05.845Z,9.80
2019-04-03T04:09:35.672Z,8.68
2019-04-03T04:12:06.899Z,9.63
2019-04-03T04:14:37.258Z,9.33
2019-04-03T04:17:08.717Z,9.23
2019-04-03T04:19:37.763Z,9.98
2019-04-03T04:22:06.996Z,9.60
2019-04-03T04:24:36.146Z,9.25
2019-04-03T04:27:05.366Z,9.60
2019-04-03T04:29:34.482Z,9.55
2019-04-03T04:32:03.594Z,9.15
2019-04-03T04:34:32.662Z,9.38
2019-04-03T04:37:02.866Z,9.70
2019-04-03T04:39:32.672Z,9.98
2019-04-03T04:42:03.480Z,9.95
2019-04-03T04:44:32.655Z,8.80
2019-04-03T04:47:01.734Z,9.05
2019-04-03T04:49:30.958Z,9.60
2019-04-03T04:52:00.213Z,9.55
2019-04-03T04:54:30.622Z,9.23
2019-04-03T04:57:00.031Z,9.60
2019-04-03T04:59:29.139Z,9.23
2019-04-03T05:01:58.464Z,11.30
2019-04-03T05:04:27.567Z,10.63
2019-04-03T05:06:59.676Z,10.60
2019-04-03T05:09:27.404Z,10.08
2019-04-03T05:11:56.418Z,10.72
2019-04-03T05:14:25.435Z,12.82
2019-04-03T05:16:55.886Z,13.13
2019-04-03T05:19:25.367Z,12.55
2019-04-03T05:21:54.481Z,13.43
2019-04-03T05:24:23.643Z,13.30
2019-04-03T05:26:52.832Z,12.33
2019-04-03T05:29:21.940Z,13.38
2019-04-03T05:31:51.102Z,14.25
2019-04-03T05:34:20.200Z,14.38
2019-04-03T05:36:49.284Z,12.95
2019-04-03T05:39:18.351Z,13.75
2019-04-03T05:41:47.679Z,13.35
2019-04-03T05:44:16.985Z,15.95
2019-04-03T05:46:46.439Z,13.90
2019-04-03T05:49:15.501Z,13.88
2019-04-03T05:51:44.694Z,12.95
2019-04-03T05:54:14.732Z,16.30
2019-04-03T05:56:44.262Z,13.83
2019-04-03T05:59:13.681Z,11.03
2019-04-03T06:01:46.060Z,11.48
2019-04-03T06:04:13.725Z,11.63
2019-04-03T06:06:46.042Z,9.33
2019-04-03T06:09:13.668Z,10.45
2019-04-03T06:11:42.955Z,10.08
2019-04-03T06:14:12.139Z,10.68
2019-04-03T06:16:41.292Z,9.98
2019-04-03T06:19:10.458Z,10.00
2019-04-03T06:21:39.561Z,10.53
2019-04-03T06:24:08.718Z,10.63
2019-04-03T06:26:38.485Z,10.35
2019-04-03T06:29:08.220Z,9.95
2019-04-03T06:31:37.504Z,10.15
2019-04-03T06:34:07.632Z,9.68
2019-04-03T06:36:37.216Z,10.28
2019-04-03T06:39:08.050Z,10.30
2019-04-03T06:41:37.148Z,10.65
2019-04-03T06:44:06.232Z,10.48
2019-04-03T06:46:35.558Z,10.60
2019-04-03T06:49:07.971Z,9.98
2019-04-03T06:51:35.779Z,10.65
2019-04-03T06:54:07.629Z,10.85
2019-04-03T06:56:35.888Z,10.55
2019-04-03T06:59:05.080Z,10.18
2019-04-03T07:01:34.206Z,10.90
2019-04-03T07:04:06.466Z,10.82
2019-04-03T07:06:36.533Z,11.25
2019-04-03T07:09:07.480Z,9.73
2019-04-03T07:11:36.541Z,11.57
2019-04-03T07:14:05.748Z,10.48
2019-04-03T07:16:37.488Z,10.80
2019-04-03T07:19:07.474Z,10.48
2019-04-03T07:21:36.175Z,11.45
2019-04-03T07:24:25.461Z,10.70
2019-04-03T07:26:54.499Z,11.10
2019-04-03T07:29:25.548Z,11.08
2019-04-03T07:31:55.169Z,10.10
2019-04-03T07:34:24.856Z,11.97
2019-04-03T07:36:54.124Z,10.93
2019-04-03T07:39:23.268Z,11.20
2019-04-03T07:41:54.420Z,11.30
2019-04-03T07:44:23.276Z,10.75
2019-04-03T07:46:54.786Z,11.43
2019-04-03T07:49:23.074Z,10.38
2019-04-03T07:51:51.991Z,11.12
2019-04-03T07:54:21.967Z,11.00
2019-04-03T07:56:52.092Z,11.80
2019-04-03T07:59:21.578Z,11.05
2019-04-03T08:01:50.845Z,10.85
2019-04-03T08:04:20.100Z,10.65
2019-04-03T08:06:49.249Z,12.20
2019-04-03T08:09:18.346Z,11.43
2019-04-03T08:11:47.695Z,11.25
2019-04-03T08:14:19.216Z,12.68
2019-04-03T08:16:48.168Z,11.78
2019-04-03T08:19:18.044Z,11.15
2019-04-03T08:21:47.036Z,11.12
2019-04-03T08:24:16.089Z,11.15
2019-04-03T08:26:45.035Z,12.00
2019-04-03T08:29:14.162Z,11.38
2019-04-03T08:31:47.726Z,12.33
2019-04-03T08:34:16.798Z,11.85
2019-04-03T08:36:44.763Z,12.07
2019-04-03T08:39:16.035Z,11.90
2019-04-03T08:41:44.503Z,12.50
2019-04-03T08:44:13.579Z,12.50
2019-04-03T08:46:43.798Z,13.08
2019-04-03T08:49:13.070Z,12.65
2019-04-03T08:51:42.145Z,12.03
2019-04-03T08:54:11.389Z,13.15
2019-04-03T08:56:40.587Z,11.95
2019-04-03T08:59:12.538Z,12.35
2019-04-03T09:01:40.378Z,11.93
2019-04-03T09:04:09.445Z,12.05
2019-04-03T09:06:38.448Z,12.78
2019-04-03T09:09:09.770Z,12.65
2019-04-03T09:11:38.836Z,12.73
2019-04-03T09:14:07.957Z,12.73
2019-04-03T09:16:37.003Z,12.23
2019-04-03T09:19:06.234Z,12.80
2019-04-03T09:21:35.310Z,12.75
2019-04-03T09:24:04.373Z,13.83
2019-04-03T09:26:37.146Z,13.40
2019-04-03T09:29:04.498Z,13.58
2019-04-03T09:31:33.690Z,14.60
2019-04-03T09:34:03.221Z,13.18
2019-04-03T09:36:34.342Z,14.35
2019-04-03T09:39:04.745Z,13.80
2019-04-03T09:41:33.889Z,13.90
2019-04-03T09:44:03.156Z,13.68
2019-04-03T09:46:32.467Z,13.38
2019-04-03T09:49:01.454Z,13.62
2019-04-03T09:51:30.578Z,14.30
2019-04-03T09:53:59.706Z,12.70
2019-04-03T09:56:28.890Z,14.23
2019-04-03T09:58:58.160Z,13.55
2019-04-03T10:01:47.886Z,13.72
2019-04-03T10:04:20.056Z,13.43
2019-04-03T10:06:47.913Z,12.95
2019-04-03T10:09:16.991Z,13.15
2019-04-03T10:11:46.075Z,13.53
2019-04-03T10:14:15.099Z,13.58
2019-04-03T10:16:44.294Z,13.60
2019-04-03T10:19:14.598Z,14.45
2019-04-03T10:21:43.756Z,13.70
2019-04-03T10:24:12.852Z,13.45
2019-04-03T10:26:41.915Z,12.35
2019-04-03T10:29:10.995Z,14.85
2019-04-03T10:31:39.909Z,13.10
2019-04-03T10:34:08.937Z,12.03
2019-04-03T10:36:57.216Z,13.30
2019-04-03T10:39:26.550Z,12.73
2019-04-03T10:41:56.032Z,12.88
2019-04-03T10:44:25.261Z,13.78
2019-04-03T10:46:54.440Z,11.95
2019-04-03T10:49:23.801Z,12.90
2019-04-03T10:51:52.983Z,13.05
2019-04-03T10:54:24.416Z,13.35
2019-04-03T10:56:52.797Z,13.03
2019-04-03T10:59:21.870Z,12.45
2019-04-03T11:01:51.151Z,12.45
2019-04-03T11:04:20.285Z,13.48
2019-04-03T11:06:49.292Z,13.05
2019-04-03T11:09:18.378Z,13.05
2019-04-03T11:11:47.532Z,12.75
2019-04-03T11:14:16.681Z,10.68
2019-04-03T11:16:46.530Z,10.63
2019-04-03T11:19:19.018Z,11.53
2019-04-03T11:21:47.174Z,11.33
2019-04-03T11:24:16.854Z,11.65
2019-04-03T11:26:46.256Z,11.20
2019-04-03T11:29:15.346Z,11.53
2019-04-03T11:31:44.445Z,9.90
2019-04-03T11:34:16.727Z,9.20
2019-04-03T11:36:44.388Z,8.48
2019-04-03T11:39:16.113Z,8.58
2019-04-03T11:41:44.542Z,7.05
2019-04-03T11:44:13.881Z,7.10
2019-04-03T11:46:43.397Z,6.40
2019-04-03T11:49:12.543Z,5.40
2019-04-03T11:51:41.754Z,6.00
2019-04-03T11:54:10.877Z,5.15
2019-04-03T11:56:40.270Z,5.22
2019-04-03T11:59:09.564Z,4.17
2019-04-03T12:01:38.777Z,4.85
2019-04-03T12:04:07.790Z,4.40
2019-04-03T12:06:36.882Z,4.37
2019-04-03T12:09:08.358Z,4.47
2019-04-03T12:11:38.382Z,5.57
2019-04-03T12:14:08.480Z,4.47
2019-04-03T12:16:37.551Z,4.70
2019-04-03T12:19:07.071Z,4.28
2019-04-03T12:21:36.162Z,4.60
2019-04-03T12:24:05.233Z,4.80
2019-04-03T12:26:34.292Z,4.60
2019-04-03T12:29:03.700Z,4.65
2019-04-03T12:31:33.787Z,4.75
2019-04-03T12:34:05.151Z,4.40
2019-04-03T12:36:33.582Z,4.50
2019-04-03T12:39:02.655Z,4.20
2019-04-03T12:41:32.001Z,4.62
2019-04-03T12:44:01.322Z,5.03
2019-04-03T12:46:37.834Z,4.62
2019-04-03T12:49:08.831Z,4.47
2019-04-03T12:51:37.960Z,4.87
2019-04-03T12:54:07.329Z,4.22
2019-04-03T12:56:36.498Z,4.55
2019-04-03T12:59:07.424Z,3.92
2019-04-03T13:01:36.539Z,3.52
2019-04-03T13:04:05.756Z,4.03
2019-04-03T13:06:34.910Z,3.70
2019-04-03T13:09:06.130Z,3.58
2019-04-03T13:11:35.280Z,3.22
2019-04-03T13:14:04.856Z,3.37
2019-04-03T13:16:34.018Z,3.62
2019-04-03T13:19:03.062Z,3.17
2019-04-03T13:21:32.259Z,3.45
2019-04-03T13:24:01.175Z,3.40
2019-04-03T13:26:30.593Z,3.27
2019-04-03T13:28:59.679Z,3.33
2019-04-03T13:31:28.835Z,3.40
2019-04-03T13:34:17.031Z,4.00
2019-04-03T13:36:46.130Z,3.20
2019-04-03T13:39:15.490Z,2.85
2019-04-03T13:41:44.956Z,3.25
2019-04-03T13:44:14.498Z,2.52
2019-04-03T13:46:43.610Z,2.47
2019-04-03T13:49:12.798Z,2.17
2019-04-03T13:51:41.779Z,2.02
2019-04-03T13:54:10.862Z,1.67
2019-04-03T13:56:42.221Z,1.70
2019-04-03T13:59:10.802Z,1.60
2019-04-03T14:01:40.597Z,1.70
2019-04-03T14:04:10.625Z,1.70
2019-04-03T14:06:39.806Z,1.72
2019-04-03T14:09:08.855Z,1.50
2019-04-03T14:11:37.951Z,1.55
2019-04-03T14:14:06.943Z,1.70
2019-04-03T14:16:36.091Z,1.40
2019-04-03T14:19:05.153Z,1.32
2019-04-03T14:21:35.737Z,1.40
2019-04-03T14:24:07.132Z,1.32
2019-04-03T14:26:35.935Z,1.60
2019-04-03T14:29:07.686Z,1.45
2019-04-03T14:31:37.678Z,1.50
2019-04-03T14:34:06.561Z,1.70
2019-04-03T14:36:35.881Z,1.25
2019-04-03T14:39:08.466Z,1.35
2019-04-03T14:41:37.690Z,1.40
2019-04-03T14:44:07.566Z,1.62
2019-04-03T14:46:37.340Z,1.35
2019-04-03T14:49:06.772Z,1.30
2019-04-03T14:51:35.916Z,1.30
2019-04-03T14:54:07.735Z,1.10
2019-04-03T14:56:36.046Z,1.40
2019-04-03T14:59:05.275Z,2.10
2019-04-03T15:01:34.198Z,1.80
2019-04-03T15:04:03.263Z,1.90
2019-04-03T15:06:32.260Z,1.70
2019-04-03T15:09:01.371Z,1.87
2019-04-03T15:11:30.820Z,2.08
2019-04-03T15:13:59.903Z,2.17
2019-04-03T15:16:29.331Z,2.50
2019-04-03T15:19:01.941Z,1.67
2019-04-03T15:21:30.674Z,1.77
2019-04-03T15:23:59.887Z,2.00
2019-04-03T15:26:29.246Z,2.00
2019-04-03T15:29:01.226Z,1.52
2019-04-03T15:31:29.173Z,1.50
2019-04-03T15:33:58.258Z,1.55
2019-04-03T15:36:27.673Z,1.50
2019-04-03T15:38:58.740Z,1.40
2019-04-03T15:41:30.466Z,1.70
2019-04-03T15:43:58.185Z,1.55
2019-04-03T15:46:29.219Z,1.80
2019-04-03T15:48:58.007Z,1.70
2019-04-03T15:51:26.959Z,1.80
2019-04-03T15:53:57.037Z,1.67
2019-04-03T15:56:26.887Z,1.75
2019-04-03T15:58:58.283Z,1.80
2019-04-03T16:01:26.771Z,1.67
2019-04-03T16:03:58.542Z,1.60
2019-04-03T16:06:26.663Z,1.60
2019-04-03T16:08:55.633Z,1.70
2019-04-03T16:11:24.672Z,1.40
2019-04-03T16:13:53.680Z,1.35
2019-04-03T16:16:22.836Z,1.57
2019-04-03T16:19:21.291Z,1.77
2019-04-03T16:21:56.230Z,1.30
2019-04-03T16:24:48.871Z,1.75
2019-04-03T16:28:01.313Z,1.60
2019-04-03T16:30:52.542Z,1.65
2019-04-03T16:33:26.014Z,1.50
2019-04-03T16:42:21.365Z,1.60
2019-04-03T16:44:50.926Z,1.75
2019-04-03T16:47:20.082Z,1.47
2019-04-03T16:49:49.622Z,1.70
2019-04-03T16:52:18.839Z,1.60
2019-04-03T16:54:47.775Z,1.70
2019-04-03T16:57:16.927Z,1.60
2019-04-03T16:59:46.064Z,1.80
2019-04-03T17:02:16.121Z,1.50
2019-04-03T17:04:45.902Z,1.50
2019-04-03T17:07:14.963Z,1.70
2019-04-03T17:09:44.222Z,1.80
2019-04-03T17:12:13.387Z,1.85
2019-04-03T17:14:42.381Z,2.00
2019-04-03T17:17:14.163Z,1.75
2019-04-03T17:19:42.348Z,1.37
2019-04-03T17:22:11.722Z,1.70
2019-04-03T17:24:46.107Z,1.60
2019-04-03T17:27:11.648Z,1.67
2019-04-03T17:29:40.667Z,1.40
2019-04-03T17:32:09.832Z,1.45
2019-04-03T17:34:42.050Z,1.60
2019-04-03T17:37:09.450Z,1.70
2019-04-03T17:39:38.540Z,1.90
2019-04-03T17:42:08.732Z,1.62
2019-04-03T17:44:38.506Z,1.57
2019-04-03T17:47:07.730Z,1.40
2019-04-03T17:49:36.732Z,1.70
2019-04-03T17:52:05.889Z,1.70
2019-04-03T17:54:34.981Z,1.80
2019-04-03T17:57:04.123Z,1.80
2019-04-03T17:59:33.215Z,1.37
2019-04-03T18:02:02.383Z,1.47
2019-04-03T18:04:31.307Z,1.40
2019-04-03T18:07:00.483Z,1.82
2019-04-03T18:09:29.598Z,2.20
2019-04-03T18:11:58.992Z,1.90
2019-04-03T18:14:28.075Z,1.35
2019-04-03T18:16:57.094Z,1.45
2019-04-03T18:19:36.775Z,1.47
2019-04-03T18:21:56.917Z,1.98
2019-04-03T18:24:25.835Z,1.90
2019-04-03T18:26:54.911Z,1.52
2019-04-03T18:29:24.477Z,1.85
2019-04-03T18:31:53.839Z,2.00
2019-04-03T18:34:23.002Z,2.00
2019-04-03T18:36:52.084Z,2.00
2019-04-03T18:39:21.266Z,2.00
2019-04-03T18:41:50.406Z,1.92
2019-04-03T18:46:50.335Z,1.77
2019-04-03T18:47:16.103Z,1.80
2019-04-03T18:49:19.575Z,1.72
2019-04-03T18:51:48.633Z,1.82
2019-04-03T18:54:17.716Z,1.87
2019-04-03T18:57:19.217Z,1.62
2019-04-03T19:00:18.031Z,1.90
2019-04-03T19:03:09.650Z,2.00
2019-04-03T19:06:01.269Z,2.10
2019-04-03T19:08:36.595Z,1.77
2019-04-03T19:14:27.643Z,1.80
2019-04-03T19:17:22.958Z,1.80
2019-04-03T19:20:12.060Z,2.47
2019-04-03T19:23:01.601Z,2.25
2019-04-03T19:25:22.115Z,2.08
2019-04-03T19:27:57.530Z,1.77
2019-04-03T19:30:28.607Z,1.98
2019-04-03T19:32:58.646Z,1.80
2019-04-03T19:35:31.607Z,1.87
2019-04-03T19:38:13.214Z,1.95
2019-04-03T19:40:54.778Z,1.80
2019-04-03T19:43:50.860Z,1.72
2019-04-03T19:46:46.158Z,2.22
2019-04-03T19:49:23.571Z,2.58
2019-04-03T19:51:59.352Z,2.10
2019-04-03T19:54:47.131Z,1.80
2019-04-03T19:58:10.616Z,1.60
2019-04-03T20:03:32.444Z,1.95
2019-04-03T20:06:04.180Z,1.70
2019-04-03T20:08:40.090Z,1.55
2019-04-03T20:11:38.113Z,1.65
2019-04-03T20:14:29.774Z,1.45
2019-04-03T20:17:02.530Z,1.80
2019-04-03T20:20:08.155Z,3.27
2019-04-03T20:23:05.605Z,4.37
2019-04-03T20:25:47.391Z,5.00
2019-04-03T20:32:14.211Z,5.72
2019-04-03T20:34:57.152Z,6.28
2019-04-03T20:37:29.975Z,5.97
2019-04-03T20:40:00.497Z,7.00
2019-04-03T20:42:30.564Z,7.78
2019-04-03T20:45:03.352Z,7.35
2019-04-03T20:47:36.700Z,8.00
2019-04-03T20:50:40.643Z,8.20
2019-04-03T20:53:16.922Z,7.83
2019-04-03T20:55:49.047Z,7.47
2019-04-03T20:58:22.736Z,7.05
2019-04-03T21:03:49.146Z,7.03
2019-04-03T21:06:41.530Z,7.55
2019-04-03T21:09:10.970Z,7.25
2019-04-03T21:11:44.753Z,7.08
2019-04-03T21:14:19.070Z,7.28
2019-04-03T21:16:48.520Z,7.37
2019-04-03T21:19:21.223Z,7.28
2019-04-03T21:22:05.917Z,7.20
2019-04-03T21:24:49.812Z,6.87
2019-04-03T21:27:56.701Z,7.10
2019-04-03T21:30:23.892Z,6.87
2019-04-03T21:33:08.853Z,7.47
2019-04-03T21:36:06.910Z,7.45
2019-04-03T21:38:49.922Z,7.80
2019-04-03T21:41:28.370Z,7.70
2019-04-03T21:44:14.195Z,7.28
2019-04-03T21:47:14.492Z,6.67
2019-04-03T21:49:52.467Z,6.60
2019-04-03T21:52:46.884Z,6.15
2019-04-03T21:55:25.532Z,6.58
2019-04-03T21:57:55.185Z,6.33
2019-04-03T22:01:17.736Z,6.05
2019-04-03T22:03:50.547Z,5.95
2019-04-03T22:06:19.219Z,5.67
2019-04-03T22:08:51.373Z,5.58
2019-04-03T22:11:20.315Z,5.12
2019-04-03T22:13:49.975Z,5.60
2019-04-03T22:16:20.313Z,4.58
2019-04-03T22:18:50.253Z,5.60
2019-04-03T22:21:20.047Z,5.08
2019-04-03T22:23:49.809Z,5.80
2019-04-03T22:26:20.602Z,5.28
2019-04-03T22:28:49.947Z,5.30
2019-04-03T22:31:20.967Z,5.92
2019-04-03T22:33:50.913Z,6.00
2019-04-03T22:36:20.726Z,4.75
2019-04-03T22:38:50.398Z,5.33
2019-04-03T22:41:20.246Z,5.85
2019-04-03T22:43:53.021Z,6.12
2019-04-03T22:46:22.650Z,5.08
2019-04-03T22:48:52.185Z,5.25
2019-04-03T22:51:21.528Z,5.58
2019-04-03T22:54:15.968Z,5.17
2019-04-03T22:56:45.920Z,4.60
2019-04-03T22:59:16.079Z,4.62
2019-04-03T23:01:45.236Z,4.97
2019-04-03T23:04:27.511Z,5.05
2019-04-03T23:07:21.819Z,5.42
2019-04-03T23:10:02.985Z,5.47
2019-04-03T23:12:49.588Z,5.10
2019-04-03T23:15:28.407Z,5.05
2019-04-03T23:18:02.951Z,5.42
2019-04-03T23:20:36.670Z,5.42
2019-04-03T23:23:20.270Z,5.50
2019-04-03T23:25:52.345Z,5.67
2019-04-03T23:28:45.398Z,5.58
2019-04-03T23:33:43.866Z,5.83
2019-04-03T23:36:13.526Z,5.65
2019-04-03T23:38:43.248Z,5.55
2019-04-03T23:41:13.126Z,5.75
2019-04-03T23:43:43.684Z,5.75
2019-04-03T23:46:14.699Z,5.55
2019-04-03T23:48:47.016Z,6.00
2019-04-03T23:51:22.993Z,5.53
2019-04-03T23:53:50.039Z,5.20
2019-04-03T23:56:19.881Z,5.08
2019-04-03T23:58:49.695Z,4.87
